createdAt,value
2018-10-12T00:01:08.688Z,16.50
2018-10-12T00:03:37.708Z,16.40
2018-10-12T00:06:06.633Z,16.40
2018-10-12T00:08:35.399Z,16.40
2018-10-12T00:11:04.096Z,16.40
2018-10-12T00:13:33.052Z,16.40
2018-10-12T00:16:01.749Z,16.30
2018-10-12T00:18:30.472Z,16.30
2018-10-12T00:20:59.174Z,16.30
2018-10-12T00:23:27.849Z,16.30
2018-10-12T00:25:56.530Z,16.30
2018-10-12T00:28:25.462Z,16.30
2018-10-12T00:30:54.331Z,16.30
2018-10-12T00:33:23.276Z,16.20
2018-10-12T00:35:52.111Z,16.20
2018-10-12T00:38:20.801Z,16.20
2018-10-12T00:40:49.484Z,16.10
2018-10-12T00:43:18.250Z,16.20
2018-10-12T00:45:47.115Z,16.20
2018-10-12T00:48:15.785Z,16.20
2018-10-12T00:50:44.453Z,16.20
2018-10-12T00:53:13.157Z,16.20
2018-10-12T00:55:41.811Z,16.10
2018-10-12T00:58:10.487Z,16.20
2018-10-12T01:00:39.183Z,16.10
2018-10-12T01:03:08.041Z,16.10
2018-10-12T01:05:36.738Z,16.10
2018-10-12T01:08:05.413Z,16.00
2018-10-12T01:10:34.125Z,16.00
2018-10-12T01:13:02.815Z,16.00
2018-10-12T01:15:31.479Z,16.00
2018-10-12T01:18:00.156Z,16.00
2018-10-12T01:20:28.867Z,15.90
2018-10-12T01:22:57.563Z,15.90
2018-10-12T01:25:26.267Z,15.80
2018-10-12T01:27:54.953Z,15.80
2018-10-12T01:30:24.991Z,15.80
2018-10-12T01:32:59.373Z,15.80
2018-10-12T01:35:28.055Z,15.80
2018-10-12T01:37:56.783Z,15.80
2018-10-12T01:40:25.434Z,15.80
2018-10-12T01:42:54.135Z,15.80
2018-10-12T01:45:22.857Z,15.70
2018-10-12T01:47:51.746Z,15.70
2018-10-12T01:50:20.589Z,15.70
2018-10-12T01:52:49.455Z,15.70
2018-10-12T01:55:18.407Z,15.60
2018-10-12T01:57:47.282Z,15.60
2018-10-12T02:00:16.146Z,15.60
2018-10-12T02:02:44.992Z,15.50
2018-10-12T02:05:13.864Z,15.60
2018-10-12T02:07:42.778Z,15.50
2018-10-12T02:10:11.548Z,15.60
2018-10-12T02:12:40.450Z,15.50
2018-10-12T02:15:09.352Z,15.50
2018-10-12T02:17:38.056Z,15.40
2018-10-12T02:20:07.044Z,15.50
2018-10-12T02:22:35.838Z,15.40
2018-10-12T02:25:04.722Z,15.40
2018-10-12T02:27:33.435Z,15.40
2018-10-12T02:30:02.129Z,15.30
2018-10-12T02:32:30.784Z,15.20
2018-10-12T02:34:59.473Z,15.20
2018-10-12T02:37:28.207Z,15.10
2018-10-12T02:39:56.896Z,15.00
2018-10-12T02:42:25.557Z,15.00
2018-10-12T02:44:54.219Z,15.00
2018-10-12T02:47:22.942Z,15.00
2018-10-12T02:49:51.615Z,14.90
2018-10-12T02:52:20.363Z,14.90
2018-10-12T02:54:49.063Z,14.80
2018-10-12T02:57:17.869Z,14.80
2018-10-12T02:59:46.791Z,14.80
2018-10-12T03:02:15.705Z,14.90
2018-10-12T03:04:44.564Z,14.80
2018-10-12T03:07:13.251Z,14.70
2018-10-12T03:09:41.975Z,14.70
2018-10-12T03:12:10.729Z,14.70
2018-10-12T03:14:39.424Z,14.60
2018-10-12T03:17:08.105Z,14.60
2018-10-12T03:19:37.121Z,14.60
2018-10-12T03:22:05.811Z,14.60
2018-10-12T03:24:34.509Z,14.60
2018-10-12T03:27:03.193Z,14.60
2018-10-12T03:29:31.871Z,14.60
2018-10-12T03:32:01.397Z,14.50
2018-10-12T03:34:30.100Z,14.50
2018-10-12T03:36:59.035Z,14.50
2018-10-12T03:39:27.744Z,14.40
2018-10-12T03:41:56.408Z,14.50
2018-10-12T03:44:25.108Z,14.50
2018-10-12T03:46:53.803Z,14.40
2018-10-12T03:49:22.500Z,14.40
2018-10-12T03:51:51.222Z,14.40
2018-10-12T03:54:19.865Z,14.30
2018-10-12T03:56:48.626Z,14.30
2018-10-12T03:59:17.334Z,14.20
2018-10-12T04:01:45.999Z,14.20
2018-10-12T04:04:14.682Z,14.30
2018-10-12T04:06:43.370Z,14.30
2018-10-12T04:09:12.046Z,14.30
2018-10-12T04:11:40.778Z,14.30
2018-10-12T04:14:09.517Z,14.30
2018-10-12T04:16:38.449Z,14.20
2018-10-12T04:19:07.917Z,14.10
2018-10-12T04:21:36.601Z,14.20
2018-10-12T04:24:05.300Z,14.20
2018-10-12T04:26:34.032Z,14.20
2018-10-12T04:29:02.749Z,14.20
2018-10-12T04:31:31.447Z,14.20
2018-10-12T04:34:00.175Z,14.20
2018-10-12T04:36:29.038Z,14.20
2018-10-12T04:40:34.967Z,14.20
2018-10-12T04:43:03.674Z,14.20
2018-10-12T04:45:32.461Z,14.10
2018-10-12T04:48:01.150Z,14.20
2018-10-12T04:50:29.839Z,14.10
2018-10-12T04:52:58.531Z,14.10
2018-10-12T04:55:28.683Z,14.10
2018-10-12T04:57:57.377Z,14.00
2018-10-12T05:00:26.044Z,14.00
2018-10-12T05:02:54.762Z,13.90
2018-10-12T05:05:23.493Z,13.90
2018-10-12T05:07:52.506Z,13.90
2018-10-12T05:10:21.269Z,13.80
2018-10-12T05:12:50.574Z,13.90
2018-10-12T05:15:19.432Z,14.00
2018-10-12T05:17:48.112Z,13.90
2018-10-12T05:20:16.908Z,13.90
2018-10-12T05:22:45.912Z,13.80
2018-10-12T05:25:14.708Z,13.90
2018-10-12T05:27:43.520Z,13.90
2018-10-12T05:30:12.340Z,13.90
2018-10-12T05:32:41.116Z,13.80
2018-10-12T05:35:09.907Z,13.80
2018-10-12T05:37:38.840Z,13.80
2018-10-12T05:40:07.537Z,13.70
2018-10-12T05:42:36.250Z,13.70
2018-10-12T05:45:05.005Z,13.70
2018-10-12T05:47:33.685Z,13.70
2018-10-12T05:50:04.991Z,13.70
2018-10-12T05:52:34.446Z,13.70
2018-10-12T05:55:03.365Z,13.60
2018-10-12T05:57:35.380Z,13.60
2018-10-12T06:00:04.450Z,13.70
2018-10-12T06:02:33.169Z,13.60
2018-10-12T06:05:01.894Z,13.60
2018-10-12T06:07:30.685Z,13.60
2018-10-12T06:09:59.440Z,13.50
2018-10-12T06:12:28.097Z,13.50
2018-10-12T06:14:56.803Z,13.40
2018-10-12T06:17:25.750Z,13.50
2018-10-12T06:19:54.593Z,13.40
2018-10-12T06:22:23.598Z,13.40
2018-10-12T06:24:52.779Z,13.50
2018-10-12T06:27:21.847Z,13.60
2018-10-12T06:29:50.537Z,13.60
2018-10-12T06:32:19.257Z,13.70
2018-10-12T06:34:47.931Z,13.70
2018-10-12T06:37:16.665Z,13.70
2018-10-12T06:39:45.413Z,13.80
2018-10-12T06:42:14.137Z,13.80
2018-10-12T06:44:42.848Z,13.70
2018-10-12T06:47:11.603Z,13.60
2018-10-12T06:49:40.350Z,13.70
2018-10-12T06:52:09.279Z,13.80
2018-10-12T06:54:38.028Z,13.80
2018-10-12T06:57:06.726Z,13.80
2018-10-12T06:59:35.460Z,13.90
2018-10-12T07:02:04.173Z,13.90
2018-10-12T07:04:32.862Z,14.00
2018-10-12T07:07:01.605Z,14.10
2018-10-12T07:09:30.309Z,14.20
2018-10-12T07:11:59.055Z,14.10
2018-10-12T07:14:27.737Z,14.20
2018-10-12T07:16:56.450Z,14.30
2018-10-12T07:19:25.240Z,14.30
2018-10-12T07:21:54.304Z,14.30
2018-10-12T07:24:22.610Z,14.40
2018-10-12T07:26:51.490Z,14.40
2018-10-12T07:29:20.161Z,14.40
2018-10-12T07:31:48.989Z,14.40
2018-10-12T07:34:17.733Z,14.50
2018-10-12T07:36:46.552Z,14.50
2018-10-12T07:39:15.219Z,14.50
2018-10-12T07:41:43.957Z,14.60
2018-10-12T07:44:12.681Z,14.60
2018-10-12T07:46:41.453Z,14.60
2018-10-12T07:49:10.172Z,14.70
2018-10-12T07:51:38.931Z,14.60
2018-10-12T07:54:07.621Z,14.70
2018-10-12T07:56:36.412Z,14.70
2018-10-12T07:59:05.101Z,14.70
2018-10-12T08:01:33.840Z,14.80
2018-10-12T08:04:02.584Z,14.80
2018-10-12T08:06:31.315Z,14.80
2018-10-12T08:08:59.983Z,14.90
2018-10-12T08:11:28.677Z,15.00
2018-10-12T08:13:57.456Z,14.90
2018-10-12T08:16:26.130Z,14.90
2018-10-12T08:18:55.203Z,15.00
2018-10-12T08:21:24.081Z,15.00
2018-10-12T08:23:53.045Z,15.10
2018-10-12T08:26:21.959Z,15.10
2018-10-12T08:28:50.925Z,15.20
2018-10-12T08:31:19.836Z,15.30
2018-10-12T08:33:48.845Z,15.40
2018-10-12T08:36:17.799Z,15.40
2018-10-12T08:38:46.763Z,15.40
2018-10-12T08:41:15.762Z,15.40
2018-10-12T08:43:44.567Z,15.50
2018-10-12T08:46:13.403Z,15.50
2018-10-12T08:48:42.355Z,15.60
2018-10-12T08:51:11.400Z,15.60
2018-10-12T08:53:40.362Z,15.70
2018-10-12T08:56:09.374Z,15.70
2018-10-12T08:58:38.380Z,15.80
2018-10-12T09:01:07.306Z,15.80
2018-10-12T09:03:36.411Z,15.80
2018-10-12T09:06:05.499Z,15.90
2018-10-12T09:08:34.389Z,15.90
2018-10-12T09:11:03.424Z,16.00
2018-10-12T09:13:32.305Z,16.10
2018-10-12T09:16:01.236Z,16.10
2018-10-12T09:18:30.042Z,16.20
2018-10-12T09:20:58.764Z,16.20
2018-10-12T09:23:27.484Z,16.20
2018-10-12T09:25:56.164Z,16.30
2018-10-12T09:28:24.888Z,16.40
2018-10-12T09:30:53.572Z,16.40
2018-10-12T09:33:22.248Z,16.40
2018-10-12T09:35:50.963Z,16.50
2018-10-12T09:38:19.631Z,16.60
2018-10-12T09:40:48.324Z,16.80
2018-10-12T09:43:17.097Z,16.80
2018-10-12T09:45:45.754Z,16.70
2018-10-12T09:48:14.529Z,16.70
2018-10-12T09:50:43.579Z,16.90
2018-10-12T09:53:12.074Z,16.90
2018-10-12T09:55:40.790Z,17.00
2018-10-12T09:58:09.538Z,17.00
2018-10-12T10:00:43.720Z,17.10
2018-10-12T10:03:17.658Z,17.10
2018-10-12T10:05:46.458Z,17.10
2018-10-12T10:08:15.260Z,17.10
2018-10-12T10:10:43.924Z,17.30
2018-10-12T10:13:12.677Z,17.40
2018-10-12T10:15:41.392Z,17.60
2018-10-12T10:18:10.145Z,17.80
2018-10-12T10:20:38.869Z,18.00
2018-10-12T10:23:07.582Z,18.20
2018-10-12T10:25:36.280Z,18.40
2018-10-12T10:28:05.159Z,18.60
2018-10-12T10:30:33.863Z,18.80
2018-10-12T10:33:02.571Z,19.10
2018-10-12T10:35:31.297Z,19.30
2018-10-12T10:38:00.032Z,19.60
2018-10-12T10:40:28.807Z,19.80
2018-10-12T10:42:57.626Z,20.20
2018-10-12T10:45:26.432Z,20.60
2018-10-12T10:47:55.116Z,20.90
2018-10-12T10:50:23.947Z,21.20
2018-10-12T10:52:52.535Z,21.60
2018-10-12T10:55:21.238Z,22.00
2018-10-12T10:57:49.996Z,22.20
2018-10-12T11:00:18.706Z,22.30
2018-10-12T11:02:47.523Z,21.80
2018-10-12T11:05:16.239Z,22.00
2018-10-12T11:07:44.922Z,22.20
2018-10-12T11:10:13.632Z,22.80
2018-10-12T11:12:42.355Z,23.40
2018-10-12T11:15:11.052Z,23.80
2018-10-12T11:17:39.720Z,23.90
2018-10-12T11:20:08.458Z,24.10
2018-10-12T11:22:37.284Z,23.80
2018-10-12T11:25:06.017Z,23.20
2018-10-12T11:27:34.778Z,22.60
2018-10-12T11:30:03.464Z,22.10
2018-10-12T11:32:32.276Z,21.50
2018-10-12T11:35:01.189Z,21.10
2018-10-12T11:37:30.315Z,20.90
2018-10-12T11:39:59.328Z,20.70
2018-10-12T11:42:39.624Z,20.50
2018-10-12T11:45:08.755Z,20.30
2018-10-12T11:47:37.834Z,20.20
2018-10-12T11:50:06.693Z,20.20
2018-10-12T11:52:35.654Z,20.10
2018-10-12T11:55:04.720Z,20.10
2018-10-12T11:57:33.414Z,20.10
2018-10-12T12:00:02.113Z,20.10
2018-10-12T12:02:30.851Z,20.10
2018-10-12T12:04:59.557Z,20.00
2018-10-12T12:07:28.246Z,20.00
2018-10-12T12:09:57.088Z,20.00
2018-10-12T12:12:25.743Z,19.90
2018-10-12T12:14:54.539Z,19.90
2018-10-12T12:17:23.209Z,19.80
2018-10-12T12:19:51.971Z,19.80
2018-10-12T12:22:20.660Z,19.80
2018-10-12T12:24:49.358Z,19.80
2018-10-12T12:27:18.042Z,19.80
2018-10-12T12:29:46.733Z,19.90
2018-10-12T12:32:15.507Z,19.90
2018-10-12T12:34:44.315Z,20.00
2018-10-12T12:37:13.237Z,20.00
2018-10-12T12:39:42.005Z,19.80
2018-10-12T12:42:11.114Z,19.90
2018-10-12T12:44:40.221Z,20.00
2018-10-12T12:47:08.982Z,20.10
2018-10-12T12:49:37.710Z,20.10
2018-10-12T12:52:06.476Z,20.10
2018-10-12T12:54:35.197Z,20.30
2018-10-12T12:57:03.903Z,20.20
2018-10-12T12:59:32.628Z,20.10
2018-10-12T13:02:01.311Z,20.20
2018-10-12T13:04:30.058Z,20.20
2018-10-12T13:06:58.810Z,20.30
2018-10-12T13:09:27.476Z,20.20
2018-10-12T13:11:56.214Z,20.10
2018-10-12T13:14:24.905Z,20.00
2018-10-12T13:16:53.625Z,20.00
2018-10-12T13:19:22.282Z,20.00
2018-10-12T13:21:51.181Z,20.00
2018-10-12T13:24:19.874Z,20.10
2018-10-12T13:26:48.533Z,20.00
2018-10-12T13:29:17.238Z,20.00
2018-10-12T13:31:45.970Z,20.00
2018-10-12T13:34:14.695Z,20.00
2018-10-12T13:36:43.465Z,20.00
2018-10-12T13:39:13.117Z,20.00
2018-10-12T13:41:41.841Z,20.10
2018-10-12T13:44:10.581Z,20.10
2018-10-12T13:46:39.345Z,20.10
2018-10-12T13:49:08.059Z,20.00
2018-10-12T13:51:36.789Z,20.10
2018-10-12T13:54:05.593Z,20.00
2018-10-12T13:56:34.257Z,20.00
2018-10-12T13:59:02.924Z,20.00
2018-10-12T14:01:31.693Z,20.10
2018-10-12T14:04:00.382Z,20.30
2018-10-12T14:06:29.125Z,20.30
2018-10-12T14:08:57.902Z,20.30
2018-10-12T14:11:26.716Z,20.40
2018-10-12T14:13:55.401Z,20.40
2018-10-12T14:16:24.084Z,20.40
2018-10-12T14:18:52.935Z,20.40
2018-10-12T14:21:21.517Z,20.40
2018-10-12T14:23:50.196Z,20.40
2018-10-12T14:26:18.911Z,20.40
2018-10-12T14:28:47.674Z,20.40
2018-10-12T14:31:16.386Z,20.40
2018-10-12T14:33:45.071Z,20.30
2018-10-12T14:36:13.797Z,20.30
2018-10-12T14:38:42.597Z,20.30
2018-10-12T14:41:11.271Z,20.30
2018-10-12T14:43:39.978Z,20.20
2018-10-12T14:46:08.705Z,20.20
2018-10-12T14:48:37.448Z,20.30
2018-10-12T14:51:06.888Z,20.30
2018-10-12T14:53:35.699Z,20.20
2018-10-12T14:56:04.276Z,20.10
2018-10-12T14:58:33.068Z,20.10
2018-10-12T15:01:01.756Z,20.10
2018-10-12T15:03:30.438Z,20.10
2018-10-12T15:05:59.196Z,20.10
2018-10-12T15:08:27.870Z,20.10
2018-10-12T15:10:56.584Z,20.10
2018-10-12T15:13:25.280Z,20.20
2018-10-12T15:15:53.964Z,20.30
2018-10-12T15:18:22.633Z,20.30
2018-10-12T15:20:51.350Z,20.20
2018-10-12T15:23:20.029Z,20.20
2018-10-12T15:25:48.803Z,20.20
2018-10-12T15:28:17.507Z,20.10
2018-10-12T15:30:46.193Z,20.10
2018-10-12T15:33:14.923Z,20.10
2018-10-12T15:35:43.698Z,20.10
2018-10-12T15:38:12.451Z,20.00
2018-10-12T15:40:41.217Z,20.00
2018-10-12T15:43:09.986Z,19.90
2018-10-12T15:45:38.645Z,19.90
2018-10-12T15:48:07.797Z,20.00
2018-10-12T15:50:36.899Z,20.00
2018-10-12T15:53:05.937Z,20.00
2018-10-12T15:55:34.845Z,19.90
2018-10-12T15:58:03.535Z,19.80
2018-10-12T16:00:33.256Z,19.80
2018-10-12T16:03:02.161Z,19.80
2018-10-12T16:05:30.898Z,19.70
2018-10-12T16:08:00.099Z,19.80
2018-10-12T16:10:28.769Z,19.70
2018-10-12T16:12:57.445Z,19.70
2018-10-12T16:15:26.207Z,19.70
2018-10-12T16:17:54.857Z,19.60
2018-10-12T16:20:24.288Z,19.60
2018-10-12T16:22:53.355Z,19.50
2018-10-12T16:26:06.105Z,19.50
2018-10-12T16:28:34.785Z,19.50
2018-10-12T16:31:03.467Z,19.50
2018-10-12T16:33:32.160Z,19.40
2018-10-12T16:36:00.953Z,19.40
2018-10-12T16:38:29.563Z,19.40
2018-10-12T16:40:58.341Z,19.40
2018-10-12T16:43:27.007Z,19.30
2018-10-12T16:45:55.690Z,19.30
2018-10-12T16:48:24.375Z,19.30
2018-10-12T16:50:53.088Z,19.30
2018-10-12T16:53:21.792Z,19.20
2018-10-12T16:55:50.486Z,19.20
2018-10-12T16:58:19.258Z,19.10
2018-10-12T17:00:47.856Z,19.10
2018-10-12T17:03:16.586Z,19.10
2018-10-12T17:05:45.296Z,19.10
2018-10-12T17:08:14.118Z,19.00
2018-10-12T17:10:42.801Z,19.00
2018-10-12T17:13:11.514Z,19.00
2018-10-12T17:15:40.212Z,19.00
2018-10-12T17:18:09.293Z,18.90
2018-10-12T17:20:38.290Z,18.90
2018-10-12T17:23:07.310Z,18.80
2018-10-12T17:25:36.192Z,18.80
2018-10-12T17:28:05.079Z,18.70
2018-10-12T17:30:33.881Z,18.70
2018-10-12T17:33:02.557Z,18.70
2018-10-12T17:35:31.293Z,18.60
2018-10-12T17:38:00.021Z,18.60
2018-10-12T17:40:28.749Z,18.50
2018-10-12T17:42:57.509Z,18.50
2018-10-12T17:45:26.193Z,18.50
2018-10-12T17:47:54.903Z,18.50
2018-10-12T17:50:23.665Z,18.50
2018-10-12T17:52:52.614Z,18.50
2018-10-12T17:55:21.269Z,18.50
2018-10-12T17:57:49.983Z,18.50
2018-10-12T18:00:18.798Z,18.40
2018-10-12T18:02:47.379Z,18.40
2018-10-12T18:05:16.145Z,18.40
2018-10-12T18:07:44.867Z,18.30
2018-10-12T18:10:13.521Z,18.30
2018-10-12T18:12:42.267Z,18.20
2018-10-12T18:15:11.889Z,18.20
2018-10-12T18:17:40.903Z,18.10
2018-10-12T18:20:10.533Z,18.10
2018-10-12T18:22:39.265Z,18.10
2018-10-12T18:25:08.033Z,18.10
2018-10-12T18:27:36.977Z,18.10
2018-10-12T18:30:05.791Z,18.00
2018-10-12T18:32:34.490Z,18.00
2018-10-12T18:35:03.189Z,18.00
2018-10-12T18:37:31.896Z,17.90
2018-10-12T18:40:00.633Z,17.90
2018-10-12T18:42:29.342Z,17.90
2018-10-12T18:44:58.027Z,17.90
2018-10-12T18:47:26.733Z,17.90
2018-10-12T18:49:55.482Z,17.90
2018-10-12T18:52:24.248Z,17.90
2018-10-12T18:54:52.958Z,17.90
2018-10-12T18:57:21.656Z,17.90
2018-10-12T18:59:50.404Z,17.90
2018-10-12T19:02:19.036Z,17.80
2018-10-12T19:04:47.806Z,17.90
2018-10-12T19:07:16.486Z,17.80
2018-10-12T19:09:45.196Z,17.80
2018-10-12T19:12:13.922Z,17.80
2018-10-12T19:14:42.720Z,17.90
2018-10-12T19:17:11.386Z,17.90
2018-10-12T19:19:40.127Z,17.90
2018-10-12T19:22:08.788Z,17.90
2018-10-12T19:24:37.478Z,17.90
2018-10-12T19:27:06.562Z,17.90
2018-10-12T19:29:35.477Z,17.80
2018-10-12T19:32:04.491Z,17.90
2018-10-12T19:34:33.413Z,17.90
2018-10-12T19:37:02.242Z,17.80
2018-10-12T19:39:30.975Z,17.80
2018-10-12T19:41:59.711Z,17.80
2018-10-12T19:44:28.435Z,17.80
2018-10-12T19:46:57.437Z,17.80
2018-10-12T19:49:26.329Z,17.80
2018-10-12T19:51:55.283Z,17.90
2018-10-12T19:54:24.133Z,17.90
2018-10-12T19:56:53.023Z,17.90
2018-10-12T19:59:21.951Z,17.90
2018-10-12T20:01:50.819Z,17.80
2018-10-12T20:04:19.570Z,17.90
2018-10-12T20:06:48.431Z,17.80
2018-10-12T20:09:17.361Z,17.80
2018-10-12T20:11:46.285Z,17.80
2018-10-12T20:14:15.077Z,17.70
2018-10-12T20:16:43.783Z,17.60
2018-10-12T20:19:12.519Z,17.70
2018-10-12T20:21:41.214Z,17.70
2018-10-12T20:24:09.940Z,17.70
2018-10-12T20:26:38.651Z,17.60
2018-10-12T20:29:07.490Z,17.60
2018-10-12T20:31:36.305Z,17.60
2018-10-12T20:34:04.929Z,17.60
2018-10-12T20:36:33.689Z,17.50
2018-10-12T20:39:02.484Z,17.50
2018-10-12T20:41:31.163Z,17.50
2018-10-12T20:43:59.848Z,17.50
2018-10-12T20:46:28.608Z,17.50
2018-10-12T20:48:57.288Z,17.40
2018-10-12T20:51:25.975Z,17.50
2018-10-12T20:53:54.658Z,17.50
2018-10-12T20:56:23.342Z,17.40
2018-10-12T20:58:52.132Z,17.40
2018-10-12T21:01:20.918Z,17.40
2018-10-12T21:03:49.650Z,17.40
2018-10-12T21:06:18.320Z,17.30
2018-10-12T21:08:47.020Z,17.30
2018-10-12T21:11:15.713Z,17.30
2018-10-12T21:13:44.374Z,17.30
2018-10-12T21:16:13.139Z,17.20
2018-10-12T21:18:41.938Z,17.30
2018-10-12T21:21:10.663Z,17.30
2018-10-12T21:23:39.332Z,17.20
2018-10-12T21:26:08.036Z,17.20
2018-10-12T21:28:36.748Z,17.20
2018-10-12T21:31:05.464Z,17.20
2018-10-12T21:33:34.146Z,17.20
2018-10-12T21:36:02.837Z,17.20
2018-10-12T21:38:31.525Z,17.20
2018-10-12T21:41:00.235Z,17.10
2018-10-12T21:43:28.933Z,17.10
2018-10-12T21:45:57.607Z,17.10
2018-10-12T21:48:26.358Z,17.10
2018-10-12T21:50:55.144Z,17.00
2018-10-12T21:53:23.835Z,17.00
2018-10-12T21:55:52.541Z,17.00
2018-10-12T21:58:21.493Z,16.90
2018-10-12T22:00:55.435Z,16.90
2018-10-12T22:03:24.143Z,16.80
2018-10-12T22:05:52.833Z,16.80
2018-10-12T22:08:26.889Z,16.80
2018-10-12T22:10:55.571Z,16.90
2018-10-12T22:13:24.227Z,16.80
2018-10-12T22:15:52.920Z,16.80
2018-10-12T22:18:21.649Z,16.80
2018-10-12T22:20:50.420Z,16.70
2018-10-12T22:23:19.106Z,16.70
2018-10-12T22:25:47.845Z,16.70
2018-10-12T22:28:16.537Z,16.70
2018-10-12T22:30:45.266Z,16.70
2018-10-12T22:33:14.106Z,16.70
2018-10-12T22:35:42.604Z,16.60
2018-10-12T22:38:11.280Z,16.70
2018-10-12T22:40:39.964Z,16.60
2018-10-12T22:43:08.642Z,16.60
2018-10-12T22:45:37.324Z,16.50
2018-10-12T22:48:06.809Z,16.50
2018-10-12T22:50:36.925Z,16.50
2018-10-12T22:53:06.653Z,16.50
2018-10-12T22:55:35.912Z,16.40
2018-10-12T22:58:04.573Z,16.40
2018-10-12T23:00:34.223Z,16.40
2018-10-12T23:03:03.001Z,16.30
2018-10-12T23:05:31.800Z,16.30
2018-10-12T23:08:00.520Z,16.30
2018-10-12T23:10:29.207Z,16.30
2018-10-12T23:12:58.162Z,16.30
2018-10-12T23:15:27.031Z,16.40
2018-10-12T23:17:55.731Z,16.30
2018-10-12T23:20:24.534Z,16.30
2018-10-12T23:22:53.252Z,16.30
2018-10-12T23:25:21.940Z,16.30
2018-10-12T23:27:50.638Z,16.20
2018-10-12T23:30:19.349Z,16.20
2018-10-12T23:32:48.073Z,16.10
2018-10-12T23:35:16.720Z,16.20
2018-10-12T23:37:45.421Z,16.10
2018-10-12T23:40:14.107Z,16.10
2018-10-12T23:42:42.771Z,16.00
2018-10-12T23:45:11.479Z,16.00
2018-10-12T23:47:40.127Z,15.90
2018-10-12T23:50:08.809Z,15.90
2018-10-12T23:52:37.492Z,15.90
2018-10-12T23:55:06.177Z,15.80
2018-10-12T23:57:34.993Z,15.80
